Time;durP1;ratioP1;P1;durP2;ratioP2;P2;SDS_P1;SDS_P2;PMS_P1;PMS_P2;Temp;Humidity;BMP_temperature;BMP_pressure;BME280_temperature;BME280_humidity;BME280_pressure;Samples;Min_cycle;Max_cycle;Signal;HPM_P1;HPM_P2
2022/11/19 00:02:00;;;;;;;8.63;5.55;;;;;;;8.53;53.01;100265.97;4904550;29;20056;-72
2022/11/19 00:04:28;;;;;;;7.45;4.85;;;;;;;8.52;53.18;100264.25;4912019;29;20135;-72
2022/11/19 00:06:57;;;;;;;6.53;4.30;;;;;;;8.49;52.70;100259.97;4899641;29;20116;-72
2022/11/19 00:09:25;;;;;;;7.30;4.78;;;;;;;8.47;52.85;100272.84;4895546;29;20498;-71
2022/11/19 00:14:40;;;;;;;7.20;5.53;;;;;;;8.40;52.65;100266.22;4901244;29;20438;-71
2022/11/19 00:17:08;;;;;;;7.93;5.15;;;;;;;8.39;52.85;100269.06;4899108;29;20410;-71
2022/11/19 00:19:36;;;;;;;7.70;5.45;;;;;;;8.35;52.55;100271.19;4906269;29;20048;-71
2022/11/19 00:22:03;;;;;;;8.18;5.22;;;;;;;8.33;52.16;100262.31;4908989;29;20052;-71
2022/11/19 00:24:31;;;;;;;8.85;5.45;;;;;;;8.28;52.30;100257.25;4904707;29;20072;-70
2022/11/19 00:27:00;;;;;;;6.85;4.95;;;;;;;8.27;52.63;100268.28;4899960;29;20127;-73
2022/11/19 00:29:28;;;;;;;8.23;6.03;;;;;;;8.22;52.54;100265.09;4910220;29;20044;-71
2022/11/19 00:31:56;;;;;;;7.97;5.32;;;;;;;8.18;52.60;100261.75;4903096;29;20592;-72
2022/11/19 00:34:24;;;;;;;8.27;4.85;;;;;;;8.15;52.23;100264.78;4908731;29;20092;-71
2022/11/19 00:36:52;;;;;;;8.13;4.82;;;;;;;8.12;52.06;100266.84;4904219;29;20057;-72
2022/11/19 00:39:20;;;;;;;7.85;5.45;;;;;;;8.11;52.16;100260.53;4902251;29;20551;-73
2022/11/19 00:41:48;;;;;;;7.10;4.80;;;;;;;8.09;52.36;100262.56;4901227;29;20055;-71
2022/11/19 00:44:18;;;;;;;6.78;4.45;;;;;;;8.10;52.29;100266.13;4902149;29;20584;-70
2022/11/19 00:46:46;;;;;;;6.97;4.53;;;;;;;8.06;52.69;100268.25;4903418;29;20044;-71
2022/11/19 00:49:14;;;;;;;8.05;4.90;;;;;;;8.03;52.15;100268.50;4903256;29;20036;-71
2022/11/19 00:51:42;;;;;;;8.10;5.45;;;;;;;8.01;52.23;100273.25;4904462;29;20044;-71
2022/11/19 00:54:09;;;;;;;7.55;4.90;;;;;;;7.99;52.32;100272.50;4903469;29;20391;-73
2022/11/19 00:56:37;;;;;;;8.40;5.00;;;;;;;7.98;52.21;100278.09;4905591;29;20115;-72
2022/11/19 00:59:05;;;;;;;7.05;4.95;;;;;;;7.95;52.10;100277.34;4904625;29;20158;-71
2022/11/19 01:01:34;;;;;;;7.03;4.95;;;;;;;7.94;52.29;100285.66;4909189;29;20077;-71
2022/11/19 01:04:02;;;;;;;6.85;4.88;;;;;;;7.89;52.50;100288.78;4908492;29;20514;-73
2022/11/19 01:06:30;;;;;;;7.47;5.25;;;;;;;7.88;52.21;100292.50;4893781;29;20241;-72
2022/11/19 01:08:59;;;;;;;7.07;4.53;;;;;;;7.88;52.50;100291.63;4905306;29;20087;-72
2022/11/19 01:11:28;;;;;;;7.07;4.43;;;;;;;7.87;52.78;100290.75;4907317;29;20063;-71
2022/11/19 01:13:57;;;;;;;6.78;4.45;;;;;;;7.86;52.57;100296.34;4903302;29;20056;-72
2022/11/19 01:16:27;;;;;;;8.40;4.88;;;;;;;7.84;52.21;100299.22;4901597;29;20448;-72
2022/11/19 01:18:57;;;;;;;7.63;4.90;;;;;;;7.84;52.50;100307.41;4908442;29;20044;-72
2022/11/19 01:21:26;;;;;;;8.52;5.18;;;;;;;7.81;52.04;100294.03;4898928;29;20521;-72
2022/11/19 01:23:55;;;;;;;7.38;5.15;;;;;;;7.80;51.94;100305.91;4904819;29;20087;-71
2022/11/19 01:26:23;;;;;;;7.65;5.10;;;;;;;7.79;52.01;100301.44;4903846;29;20557;-71
2022/11/19 01:28:51;;;;;;;8.73;5.40;;;;;;;7.77;51.94;100299.84;4900384;29;20048;-73
2022/11/19 01:31:21;;;;;;;7.35;4.90;;;;;;;7.75;51.71;100302.72;4920377;23;20279;-71
2022/11/19 01:33:50;;;;;;;7.65;4.93;;;;;;;7.73;52.18;100301.13;4898385;29;20071;-69
2022/11/19 01:36:21;;;;;;;8.13;5.05;;;;;;;7.70;52.00;100307.69;4923191;29;20580;-72
2022/11/19 01:38:50;;;;;;;7.72;4.70;;;;;;;7.67;52.01;100316.13;4911226;29;20485;-72
2022/11/19 01:41:19;;;;;;;9.07;4.95;;;;;;;7.63;51.85;100314.63;4907872;28;20660;-72
2022/11/19 01:43:50;;;;;;;9.27;5.35;;;;;;;7.64;52.01;100318.22;4907744;29;20044;-72
2022/11/19 01:46:19;;;;;;;8.35;4.88;;;;;;;7.60;51.90;100306.72;4903919;29;20211;-73
2022/11/19 01:48:50;;;;;;;8.27;5.03;;;;;;;7.55;51.97;100317.13;4917851;29;20044;-73
2022/11/19 01:51:24;;;;;;;7.90;5.15;;;;;;;7.54;51.50;100313.56;4903333;29;20048;-71
2022/11/19 01:53:57;;;;;;;8.77;5.07;;;;;;;7.49;51.35;100318.53;4907911;29;20108;-71
2022/11/19 01:56:26;;;;;;;7.60;4.63;;;;;;;7.44;51.42;100317.16;4892787;29;20052;-72
2022/11/19 01:58:58;;;;;;;9.00;5.50;;;;;;;7.43;51.24;100319.03;4900882;29;20070;-72
2022/11/19 02:01:29;;;;;;;8.73;5.38;;;;;;;7.39;51.43;100322.13;4907480;29;20072;-69
2022/11/19 02:03:59;;;;;;;7.88;5.10;;;;;;;7.35;51.09;100329.72;4903569;29;20052;-70
2022/11/19 02:06:29;;;;;;;8.77;5.15;;;;;;;7.34;51.27;100327.09;4909696;29;20572;-71
2022/11/19 02:08:57;;;;;;;8.63;5.00;;;;;;;7.29;51.19;100327.47;4910650;29;20330;-72
2022/11/19 02:11:43;;;;;;;7.65;5.13;;;;;;;7.27;51.15;100329.44;4910206;29;20095;-73
2022/11/19 02:14:24;;;;;;;7.57;5.22;;;;;;;7.25;51.54;100339.63;4907591;29;20051;-72
2022/11/19 02:17:02;;;;;;;8.27;5.13;;;;;;;7.22;51.52;100337.13;4908145;29;20577;-70
2022/11/19 02:19:48;;;;;;;8.05;5.40;;;;;;;7.19;51.30;100343.69;4911409;29;20131;-72
2022/11/19 02:22:33;;;;;;;8.38;5.22;;;;;;;7.18;51.07;100346.56;4908684;29;20048;-70
2022/11/19 02:25:12;;;;;;;8.43;5.32;;;;;;;7.15;51.39;100344.06;4906938;29;20408;-72
2022/11/19 02:28:05;;;;;;;7.97;5.20;;;;;;;7.14;51.39;100348.66;4913189;29;20060;-71
2022/11/19 02:30:37;;;;;;;8.80;5.65;;;;;;;7.11;51.21;100350.72;4905528;29;20045;-72
2022/11/19 02:33:09;;;;;;;8.68;5.15;;;;;;;7.10;50.94;100349.91;4902126;29;20521;-70
2022/11/19 02:35:49;;;;;;;8.18;5.47;;;;;;;7.10;51.11;100347.19;4905932;29;20044;-73
2022/11/19 02:38:27;;;;;;;9.43;5.40;;;;;;;7.09;50.96;100353.59;4899328;29;20401;-72
2022/11/19 02:40:59;;;;;;;7.07;4.57;;;;;;;7.06;51.18;100351.13;4905337;29;20051;-72
2022/11/19 02:43:36;;;;;;;7.80;5.38;;;;;;;7.05;50.80;100352.09;4902726;29;20052;-72
2022/11/19 02:46:09;;;;;;;7.35;4.70;;;;;;;7.03;50.89;100355.94;4907493;29;20140;-71
2022/11/19 02:48:40;;;;;;;6.82;4.50;;;;;;;7.00;50.92;100354.34;4908687;29;20048;-72
2022/11/19 02:51:09;;;;;;;8.52;4.85;;;;;;;6.97;50.83;100359.16;4903765;29;20144;-73
2022/11/19 02:53:36;;;;;;;7.80;4.32;;;;;;;6.95;50.57;100350.25;4913028;29;20045;-71
2022/11/19 02:56:16;;;;;;;7.78;4.35;;;;;;;6.95;50.61;100359.28;4901157;29;20063;-70
2022/11/19 03:04:30;;;;;;;8.00;5.43;;;;;;;6.80;50.59;100344.19;4908661;29;20438;-72
2022/11/19 03:07:03;;;;;;;7.70;4.78;;;;;;;6.82;50.33;100350.38;4907524;29;20577;-72
2022/11/19 03:09:34;;;;;;;7.88;5.07;;;;;;;6.76;50.43;100348.16;4899160;29;20112;-71
2022/11/19 03:12:12;;;;;;;7.60;4.97;;;;;;;6.75;49.95;100358.16;4901980;28;20048;-73
2022/11/19 03:17:46;;;;;;;8.10;4.70;;;;;;;6.67;50.38;100363.31;4894065;29;20128;-70
2022/11/19 03:20:22;;;;;;;9.38;4.88;;;;;;;6.65;50.50;100365.28;4911012;29;20044;-72
2022/11/19 03:22:54;;;;;;;9.02;5.45;;;;;;;6.64;50.22;100376.28;4899986;29;20047;-72
2022/11/19 03:25:26;;;;;;;9.27;5.50;;;;;;;6.65;50.40;100372.56;4908308;29;20048;-72
2022/11/19 03:28:00;;;;;;;9.15;5.45;;;;;;;6.62;50.34;100378.25;4908208;29;20055;-73
2022/11/19 03:30:30;;;;;;;10.35;5.78;;;;;;;6.63;50.47;100372.69;4902850;29;20071;-72
2022/11/19 03:33:04;;;;;;;12.60;7.38;;;;;;;6.62;50.04;100375.53;4905603;29;20055;-72
2022/11/19 03:35:36;;;;;;;9.95;6.03;;;;;;;6.62;50.04;100375.53;4908708;29;20090;-71
2022/11/19 03:38:08;;;;;;;9.85;6.18;;;;;;;6.60;50.11;100372.94;4897413;28;20068;-71
2022/11/19 03:40:38;;;;;;;10.35;6.28;;;;;;;6.58;50.26;100374.91;4908205;29;20075;-71
2022/11/19 03:43:09;;;;;;;11.77;6.75;;;;;;;6.59;50.27;100375.78;4909611;29;20509;-72
2022/11/19 03:45:43;;;;;;;11.05;6.57;;;;;;;6.60;50.29;100380.25;4910305;29;20040;-72
2022/11/19 03:48:15;;;;;;;15.50;7.80;;;;;;;6.57;50.13;100381.34;4908098;29;20040;-71
2022/11/19 03:50:48;;;;;;;9.98;6.63;;;;;;;6.57;50.02;100391.34;4907932;29;20258;-71
2022/11/19 03:53:17;;;;;;;13.52;6.95;;;;;;;6.55;50.07;100396.03;4911197;29;20528;-72
2022/11/19 03:55:51;;;;;;;11.73;6.93;;;;;;;6.54;49.69;100388.84;4909336;29;20382;-71
2022/11/19 03:58:19;;;;;;;12.20;7.20;;;;;;;6.51;49.81;100376.38;4909339;28;20040;-71
2022/11/19 04:00:47;;;;;;;11.02;7.20;;;;;;;6.49;49.71;100386.50;4911329;29;20044;-68
2022/11/19 04:03:16;;;;;;;11.05;7.38;;;;;;;6.48;49.46;100394.78;4905805;29;20597;-69
2022/11/19 04:05:44;;;;;;;12.82;7.72;;;;;;;6.44;49.38;100403.19;4911173;29;20115;-71
2022/11/19 04:08:11;;;;;;;12.40;7.70;;;;;;;6.41;49.44;100400.69;4902705;29;20056;-72
2022/11/19 04:10:39;;;;;;;12.48;8.77;;;;;;;6.39;49.41;100399.94;4900148;29;20507;-71
2022/11/19 04:13:07;;;;;;;12.25;8.07;;;;;;;6.35;49.44;100403.03;4910600;29;20078;-69
2022/11/19 04:15:35;;;;;;;14.05;8.25;;;;;;;6.32;49.46;100401.41;4912813;29;20051;-71
2022/11/19 04:18:03;;;;;;;12.35;7.82;;;;;;;6.31;49.55;100405.09;4912880;29;20075;-71
2022/11/19 04:20:32;;;;;;;9.98;6.80;;;;;;;6.30;49.67;100405.22;4911226;29;20040;-71
2022/11/19 04:23:00;;;;;;;11.15;7.20;;;;;;;6.27;49.70;100411.78;4912027;29;20062;-71
2022/11/19 04:25:28;;;;;;;11.93;7.57;;;;;;;6.27;49.84;100414.50;4913470;29;20043;-71
2022/11/19 04:27:56;;;;;;;11.20;7.13;;;;;;;6.28;49.91;100416.19;4911227;29;20506;-72
2022/11/19 04:30:25;;;;;;;11.63;7.80;;;;;;;6.27;49.92;100419.06;4907557;29;20175;-69
2022/11/19 04:32:53;;;;;;;12.45;7.60;;;;;;;6.29;50.27;100419.78;4906128;29;20060;-71
2022/11/19 04:35:20;;;;;;;12.13;7.68;;;;;;;6.30;50.13;100419.69;4896977;29;20045;-72
2022/11/19 04:37:50;;;;;;;13.07;8.23;;;;;;;6.31;49.74;100418.69;4909095;29;20402;-70
2022/11/19 04:40:17;;;;;;;13.43;8.43;;;;;;;6.32;49.94;100422.28;4910766;29;20095;-72
2022/11/19 04:42:45;;;;;;;15.52;8.68;;;;;;;6.31;49.62;100426.84;4908168;29;20055;-72
2022/11/19 04:45:13;;;;;;;14.98;8.98;;;;;;;6.31;49.63;100421.41;4905330;29;20044;-72
2022/11/19 04:47:41;;;;;;;14.68;9.10;;;;;;;6.31;49.33;100432.28;4903304;28;20553;-72
2022/11/19 04:50:09;;;;;;;16.65;8.88;;;;;;;6.30;49.26;100430.53;4911435;29;20385;-73
2022/11/19 04:52:37;;;;;;;15.75;10.38;;;;;;;6.28;49.04;100431.66;4910562;29;20040;-72
2022/11/19 04:55:10;;;;;;;14.63;9.35;;;;;;;6.27;48.82;100441.69;4911224;29;20056;-72
2022/11/19 04:57:38;;;;;;;15.95;9.40;;;;;;;6.24;48.94;100441.91;4903471;28;20048;-72
2022/11/19 05:00:07;;;;;;;17.02;10.38;;;;;;;6.21;48.94;100443.97;4900954;29;20057;-72
2022/11/19 05:02:35;;;;;;;14.63;9.40;;;;;;;6.15;48.90;100442.59;4902170;29;20056;-72
2022/11/19 05:05:03;;;;;;;13.27;8.75;;;;;;;6.14;48.92;100446.28;4901747;29;20104;-71
2022/11/19 05:07:31;;;;;;;16.50;10.48;;;;;;;6.11;48.89;100445.66;4905127;29;20048;-70
2022/11/19 05:09:59;;;;;;;15.85;9.63;;;;;;;6.07;48.97;100450.44;4893555;29;20048;-71
2022/11/19 05:12:28;;;;;;;16.20;10.07;;;;;;;6.05;49.14;100458.72;4912042;29;20074;-72
2022/11/19 05:14:56;;;;;;;15.50;9.80;;;;;;;6.02;49.11;100452.66;4911357;29;20076;-70
2022/11/19 05:17:24;;;;;;;14.05;9.02;;;;;;;5.99;48.94;100455.59;4911591;29;20048;-71
2022/11/19 05:19:51;;;;;;;15.52;9.80;;;;;;;5.97;49.14;100454.84;4910900;29;20060;-71
2022/11/19 05:22:19;;;;;;;16.27;9.43;;;;;;;5.94;49.27;100461.38;4906018;29;20103;-69
2022/11/19 05:24:47;;;;;;;15.55;9.60;;;;;;;5.94;48.98;100465.94;4911061;29;20044;-71
2022/11/19 05:27:15;;;;;;;13.38;8.48;;;;;;;5.92;49.11;100476.91;4907489;28;20059;-72
2022/11/19 05:29:44;;;;;;;14.48;9.20;;;;;;;5.90;48.79;100473.44;4907103;29;20043;-72
2022/11/19 05:32:12;;;;;;;15.77;9.77;;;;;;;5.87;49.02;100470.94;4911033;29;20053;-69
2022/11/19 05:34:40;;;;;;;13.63;9.10;;;;;;;5.88;49.17;100483.53;4907933;29;20541;-70
2022/11/19 05:37:07;;;;;;;13.77;8.85;;;;;;;5.88;48.80;100482.69;4900553;29;20096;-72
2022/11/19 05:39:35;;;;;;;16.15;9.68;;;;;;;5.87;48.84;100475.53;4904882;29;20096;-72
2022/11/19 05:42:03;;;;;;;13.98;8.68;;;;;;;5.84;48.87;100479.34;4901750;29;20378;-72
2022/11/19 05:44:31;;;;;;;15.98;9.80;;;;;;;5.84;48.93;100479.34;4906985;29;20099;-72
2022/11/19 05:47:00;;;;;;;14.45;10.02;;;;;;;5.82;48.80;100478.56;4908127;29;20457;-72
2022/11/19 05:49:28;;;;;;;14.15;9.50;;;;;;;5.79;48.85;100475.25;4911867;29;20044;-71
2022/11/19 05:51:56;;;;;;;13.77;9.35;;;;;;;5.77;48.99;100485.34;4910916;28;20052;-71
2022/11/19 05:54:24;;;;;;;16.17;9.77;;;;;;;5.76;48.85;100486.31;4908098;29;20044;-72
2022/11/19 05:56:52;;;;;;;13.27;8.70;;;;;;;5.76;48.84;100492.63;4900953;29;20584;-71
2022/11/19 05:59:19;;;;;;;14.68;9.52;;;;;;;5.73;48.75;100495.53;4906883;29;20443;-70
2022/11/19 06:01:48;;;;;;;15.13;10.43;;;;;;;5.69;48.59;100494.06;4899503;28;20167;-72
2022/11/19 06:04:17;;;;;;;13.93;9.25;;;;;;;5.71;48.79;100494.78;4909260;29;20508;-72
2022/11/19 06:06:45;;;;;;;15.48;9.65;;;;;;;5.67;49.12;100490.56;4902842;29;20108;-71
2022/11/19 06:09:13;;;;;;;12.68;8.50;;;;;;;5.65;49.11;100490.69;4899711;29;20518;-72
2022/11/19 06:11:50;;;;;;;15.43;9.98;;;;;;;5.64;48.90;100496.22;4906152;29;20498;-72
2022/11/19 06:14:20;;;;;;;15.05;10.00;;;;;;;5.63;49.08;100495.34;4909770;29;20162;-72
2022/11/19 06:16:48;;;;;;;14.07;9.02;;;;;;;5.62;48.79;100506.34;4907556;29;20410;-72
2022/11/19 06:19:18;;;;;;;15.15;10.27;;;;;;;5.60;48.71;100508.28;4909865;29;20498;-72
2022/11/19 06:21:48;;;;;;;15.13;9.50;;;;;;;5.60;49.05;100519.16;4902413;29;20055;-72
2022/11/19 06:24:16;;;;;;;15.75;10.05;;;;;;;5.59;48.43;100525.56;4907628;29;20051;-71
2022/11/19 06:26:44;;;;;;;15.68;9.60;;;;;;;5.58;49.09;100527.41;4907758;29;20048;-72
2022/11/19 06:29:13;;;;;;;14.75;9.10;;;;;;;5.60;49.15;100527.28;4908304;29;20122;-72
2022/11/19 06:31:41;;;;;;;14.15;9.20;;;;;;;5.59;49.03;100528.25;4907375;29;20537;-72
2022/11/19 06:34:09;;;;;;;13.90;9.15;;;;;;;5.59;49.26;100530.97;4910545;29;20501;-72
2022/11/19 06:36:39;;;;;;;14.38;9.32;;;;;;;5.62;49.02;100533.47;4908577;28;20361;-72
2022/11/19 06:39:14;;;;;;;13.70;8.60;;;;;;;5.61;49.19;100534.47;4900702;29;20044;-70
2022/11/19 06:41:42;;;;;;;14.38;9.80;;;;;;;5.61;49.22;100538.03;4905884;28;20048;-71
2022/11/19 06:44:10;;;;;;;15.13;9.85;;;;;;;5.61;49.07;100554.34;4910315;29;20058;-73
2022/11/19 06:46:38;;;;;;;16.38;10.23;;;;;;;5.62;49.03;100557.91;4909515;29;20442;-72
2022/11/19 06:49:06;;;;;;;14.95;9.77;;;;;;;5.61;48.82;100558.91;4908658;29;20056;-72
2022/11/19 06:51:33;;;;;;;14.27;9.38;;;;;;;5.61;48.78;100562.47;4903724;28;20525;-72
2022/11/19 06:54:03;;;;;;;15.48;10.55;;;;;;;5.61;48.94;100565.19;4909688;29;20048;-72
2022/11/19 06:56:31;;;;;;;14.70;9.82;;;;;;;5.61;49.06;100561.59;4903603;29;20048;-71
2022/11/19 06:58:59;;;;;;;13.57;9.52;;;;;;;5.62;48.81;100568.78;4904655;29;20040;-70
2022/11/19 07:01:27;;;;;;;14.23;9.65;;;;;;;5.62;48.78;100568.78;4898728;29;20045;-73
2022/11/19 07:03:54;;;;;;;14.48;9.90;;;;;;;5.63;49.04;100570.50;4905970;29;20127;-72
2022/11/19 07:06:22;;;;;;;15.55;9.95;;;;;;;5.62;48.82;100585.06;4908093;28;20379;-73
2022/11/19 07:08:50;;;;;;;15.80;10.20;;;;;;;5.63;48.75;100586.78;4901264;29;20048;-73
2022/11/19 07:11:28;;;;;;;14.40;10.07;;;;;;;5.64;49.06;100589.38;4907935;29;20044;-72
2022/11/19 07:13:57;;;;;;;17.17;11.20;;;;;;;5.62;48.57;100595.94;4909893;29;20060;-72
2022/11/19 07:16:27;;;;;;;17.10;11.02;;;;;;;5.61;48.74;100595.06;4906440;29;20048;-72
2022/11/19 07:18:58;;;;;;;17.10;11.02;;;;;;;5.61;48.58;100599.63;4906133;29;20052;-73
2022/11/19 07:21:26;;;;;;;16.00;10.23;;;;;;;5.61;48.62;100599.63;4898931;29;20059;-70
2022/11/19 07:23:54;;;;;;;15.77;10.77;;;;;;;5.59;48.66;100602.44;4907095;29;20792;-71
2022/11/19 07:26:24;;;;;;;16.50;10.88;;;;;;;5.60;48.38;100609.59;4912073;29;20044;-71
2022/11/19 07:28:52;;;;;;;19.25;11.13;;;;;;;5.59;48.76;100617.84;4908995;29;20049;-72
2022/11/19 07:31:20;;;;;;;17.30;10.93;;;;;;;5.58;48.62;100613.41;4933764;23;20052;-68
2022/11/19 07:33:47;;;;;;;17.77;11.27;;;;;;;5.56;48.55;100609.91;4914954;29;20358;-68
2022/11/19 07:36:15;;;;;;;18.30;11.50;;;;;;;5.56;48.52;100609.91;4904915;29;20045;-68
2022/11/19 07:38:45;;;;;;;18.45;11.88;;;;;;;5.54;48.53;100615.44;4917536;29;20059;-68
2022/11/19 07:44:00;;;;;;;18.90;11.55;;;;;;;5.52;47.99;100622.84;4911727;29;20052;-68
2022/11/19 07:46:28;;;;;;;18.70;12.00;;;;;;;5.49;48.15;100624.91;4923877;29;20044;-68
2022/11/19 07:48:57;;;;;;;18.45;11.30;;;;;;;5.49;48.22;100624.91;4915230;29;20067;-68
2022/11/19 07:51:25;;;;;;;18.88;12.85;;;;;;;5.47;48.15;100632.28;4913414;29;20345;-68
2022/11/19 07:53:55;;;;;;;17.45;11.65;;;;;;;5.47;48.41;100633.13;4914039;29;20120;-68
2022/11/19 07:56:24;;;;;;;20.05;12.60;;;;;;;5.45;48.21;100621.53;4910260;29;20167;-68
2022/11/19 07:58:52;;;;;;;20.13;12.35;;;;;;;5.43;48.20;100636.19;4913619;29;20052;-68
2022/11/19 08:01:23;;;;;;;18.48;11.85;;;;;;;5.44;47.99;100635.22;4907888;29;20060;-68
2022/11/19 08:03:52;;;;;;;18.88;11.88;;;;;;;5.42;48.03;100629.03;4910422;29;20521;-69
2022/11/19 08:06:25;;;;;;;18.45;11.70;;;;;;;5.41;48.35;100644.44;4911272;29;20048;-69
2022/11/19 08:08:54;;;;;;;17.83;11.00;;;;;;;5.42;48.27;100651.59;4912038;29;20119;-69
2022/11/19 08:11:22;;;;;;;18.98;11.95;;;;;;;5.42;48.40;100656.16;4907911;29;20044;-68
2022/11/19 08:13:51;;;;;;;21.95;12.95;;;;;;;5.43;48.33;100655.19;4911346;29;20195;-70
2022/11/19 08:19:05;;;;;;;19.58;11.43;;;;;;;5.41;48.37;100660.72;4910199;29;20056;-70
2022/11/19 08:21:34;;;;;;;20.65;12.15;;;;;;;5.41;48.07;100658.00;4913155;29;20111;-70
2022/11/19 08:24:02;;;;;;;19.00;12.02;;;;;;;5.41;48.33;100663.44;4911254;29;20111;-59
2022/11/19 08:26:30;;;;;;;19.73;12.70;;;;;;;5.41;48.28;100657.13;4909662;29;20127;-69
2022/11/19 08:28:58;;;;;;;21.27;12.82;;;;;;;5.40;48.06;100669.81;4910976;29;20048;-69
2022/11/19 08:31:27;;;;;;;17.80;11.88;;;;;;;5.40;48.25;100683.41;4908719;29;21623;-70
2022/11/19 08:33:55;;;;;;;21.48;12.88;;;;;;;5.40;48.17;100682.53;4912652;29;20052;-70
2022/11/19 08:36:23;;;;;;;20.08;12.45;;;;;;;5.41;48.10;100677.00;4907556;29;20393;-71
2022/11/19 08:38:51;;;;;;;19.83;12.02;;;;;;;5.41;48.40;100671.56;4908530;29;20049;-71
2022/11/19 08:44:05;;;;;;;18.33;10.85;;;;;;;5.41;48.35;100681.56;4914626;29;20055;-68
2022/11/19 08:46:34;;;;;;;16.65;11.23;;;;;;;5.41;48.19;100677.00;4910796;29;20332;-70
2022/11/19 08:49:02;;;;;;;18.67;11.50;;;;;;;5.41;48.21;100677.00;4921985;29;20054;-70
2022/11/19 08:51:30;;;;;;;19.58;12.07;;;;;;;5.41;48.35;100682.44;4915331;29;20044;-70
2022/11/19 08:53:58;;;;;;;19.25;12.57;;;;;;;5.41;48.35;100684.28;4909297;29;20135;-70
2022/11/19 08:56:25;;;;;;;19.05;12.48;;;;;;;5.41;48.16;100692.41;4909572;29;20506;-70
2022/11/19 08:58:53;;;;;;;17.15;11.32;;;;;;;5.41;48.15;100697.84;4913400;29;20044;-70
2022/11/19 09:01:29;;;;;;;21.55;13.10;;;;;;;5.38;48.52;100696.19;4912289;29;20410;-70
2022/11/19 09:03:58;;;;;;;18.35;11.45;;;;;;;5.39;48.05;100692.50;4916979;29;20119;-70
2022/11/19 09:06:26;;;;;;;19.17;12.93;;;;;;;5.38;48.09;100703.50;4908908;29;20044;-70
2022/11/19 09:08:54;;;;;;;20.80;12.18;;;;;;;5.37;48.01;100705.34;4909291;29;20037;-70
2022/11/19 09:11:22;;;;;;;17.13;11.60;;;;;;;5.35;48.02;100693.72;4910067;29;20059;-70
2022/11/19 09:13:50;;;;;;;18.45;11.68;;;;;;;5.35;48.03;100698.28;4909831;29;20043;-70
2022/11/19 09:16:18;;;;;;;18.88;12.25;;;;;;;5.32;48.18;100704.75;4902859;29;20091;-70
2022/11/19 09:18:46;;;;;;;19.27;11.68;;;;;;;5.30;47.97;100707.56;4908811;29;20079;-70
2022/11/19 09:21:15;;;;;;;18.40;11.95;;;;;;;5.30;47.86;100717.56;4911331;29;20100;-70
2022/11/19 09:23:43;;;;;;;18.25;11.55;;;;;;;5.29;47.80;100710.41;4899765;29;20049;-69
2022/11/19 09:26:13;;;;;;;18.63;11.75;;;;;;;5.29;47.67;100713.13;4906878;29;20071;-69
2022/11/19 09:28:42;;;;;;;17.08;11.88;;;;;;;5.28;48.19;100723.13;4910615;29;20412;-70
2022/11/19 09:31:12;;;;;;;19.55;12.05;;;;;;;5.27;48.17;100721.38;4919388;29;20342;-70
2022/11/19 09:33:42;;;;;;;18.23;11.60;;;;;;;5.27;47.83;100725.94;4918972;29;20047;-69
2022/11/19 09:36:10;;;;;;;17.30;10.90;;;;;;;5.27;47.92;100724.09;4908340;29;20047;-69
2022/11/19 09:38:40;;;;;;;17.45;10.45;;;;;;;5.29;47.90;100734.84;4911298;29;20047;-70
2022/11/19 09:41:29;;;;;;;17.52;11.23;;;;;;;5.28;47.03;100728.53;4905643;29;20417;-71
2022/11/19 09:44:10;;;;;;;16.65;11.02;;;;;;;5.28;47.47;100724.97;4909425;29;20051;-70
2022/11/19 09:46:46;;;;;;;16.85;10.35;;;;;;;5.29;47.60;100737.56;4914397;29;20099;-70
2022/11/19 09:49:18;;;;;;;17.25;10.98;;;;;;;5.28;47.69;100739.41;4911646;29;20056;-70
2022/11/19 09:51:53;;;;;;;16.88;10.55;;;;;;;5.28;47.71;100738.53;4914364;29;20056;-70
2022/11/19 09:54:22;;;;;;;17.33;11.32;;;;;;;5.29;47.70;100745.69;4909740;29;20044;-70
2022/11/19 09:56:54;;;;;;;18.48;11.05;;;;;;;5.29;47.60;100740.28;4908170;29;20581;-69
2022/11/19 09:59:32;;;;;;;17.65;11.50;;;;;;;5.27;47.42;100740.38;4915859;29;20055;-71
2022/11/19 10:02:00;;;;;;;17.25;11.85;;;;;;;5.25;47.51;100744.16;4911449;29;20051;-68
2022/11/19 10:04:32;;;;;;;17.05;10.98;;;;;;;5.25;47.34;100736.00;4912065;29;20044;-69
2022/11/19 10:07:10;;;;;;;17.13;10.18;;;;;;;5.24;46.92;100746.00;4912688;29;20341;-69
2022/11/19 10:09:51;;;;;;;17.48;11.02;;;;;;;5.22;46.88;100742.50;4913446;29;20052;-69
2022/11/19 10:12:46;;;;;;;15.60;10.88;;;;;;;5.20;46.86;100752.63;4910505;29;20052;-69
2022/11/19 10:15:24;;;;;;;15.95;10.23;;;;;;;5.21;47.34;100765.19;4917189;29;20571;-69
2022/11/19 10:18:00;;;;;;;17.23;10.80;;;;;;;5.21;46.95;100761.63;4906746;29;20052;-69
2022/11/19 10:20:42;;;;;;;17.35;10.10;;;;;;;5.22;46.98;100768.75;4909645;29;20047;-69
2022/11/19 10:23:16;;;;;;;16.07;9.90;;;;;;;5.19;47.19;100767.16;4906504;29;20405;-69
2022/11/19 10:25:47;;;;;;;16.23;9.95;;;;;;;5.19;47.20;100766.28;4902915;29;20123;-69
2022/11/19 10:28:18;;;;;;;16.92;10.50;;;;;;;5.20;47.17;100774.31;4907103;29;20096;-69
2022/11/19 10:30:50;;;;;;;15.43;9.80;;;;;;;5.20;46.98;100770.72;4910638;29;20052;-69
2022/11/19 10:33:23;;;;;;;15.77;10.00;;;;;;;5.18;47.13;100772.66;4925350;28;20040;-69
2022/11/19 10:35:56;;;;;;;15.13;9.70;;;;;;;5.20;47.38;100778.88;4911788;29;20127;-69
2022/11/19 10:38:31;;;;;;;18.52;10.90;;;;;;;5.16;47.29;100778.16;4907890;29;20611;-69
2022/11/19 10:41:09;;;;;;;18.40;11.40;;;;;;;5.19;47.25;100780.72;4910079;29;20414;-69
2022/11/19 10:43:45;;;;;;;17.65;10.32;;;;;;;5.19;47.34;100782.56;4908022;29;20052;-69
2022/11/19 10:46:16;;;;;;;18.17;11.73;;;;;;;5.16;47.31;100777.28;4909737;29;20069;-69
2022/11/19 10:48:50;;;;;;;15.57;10.45;;;;;;;5.18;47.61;100781.69;4911535;29;20138;-63
2022/11/19 10:51:23;;;;;;;18.52;11.43;;;;;;;5.19;47.54;100774.41;4907719;29;20127;-67
2022/11/19 10:53:54;;;;;;;18.13;12.05;;;;;;;5.17;47.51;100776.31;4902051;29;20097;-66
2022/11/19 10:56:37;;;;;;;17.77;11.65;;;;;;;5.18;47.67;100776.25;4920247;29;20063;-66
2022/11/19 10:59:12;;;;;;;17.10;10.45;;;;;;;5.17;47.41;100771.78;4897521;29;20068;-63
2022/11/19 11:01:42;;;;;;;16.95;10.55;;;;;;;5.20;48.17;100763.47;4908759;29;20054;-69
2022/11/19 11:04:17;;;;;;;16.77;10.68;;;;;;;5.23;47.74;100760.53;4916669;29;20048;-68
2022/11/19 11:06:53;;;;;;;19.00;11.65;;;;;;;5.25;47.53;100764.00;4908305;29;20137;-69
2022/11/19 11:09:32;;;;;;;18.35;11.00;;;;;;;5.28;47.14;100757.53;4911569;29;20043;-69
2022/11/19 11:15:07;;;;;;;17.67;10.40;;;;;;;5.28;47.70;100752.09;4913961;29;20039;-69
2022/11/19 11:17:37;;;;;;;16.85;10.65;;;;;;;5.29;47.85;100762.81;4913543;29;20667;-69
2022/11/19 11:20:20;;;;;;;17.15;10.98;;;;;;;5.32;47.54;100759.03;4912337;29;20056;-69
2022/11/19 11:22:50;;;;;;;17.17;11.00;;;;;;;5.30;47.87;100756.41;4912755;29;20501;-70
2022/11/19 11:25:21;;;;;;;17.60;11.18;;;;;;;5.34;47.45;100757.09;4911525;29;20485;-69
2022/11/19 11:28:05;;;;;;;18.33;11.13;;;;;;;5.36;47.20;100763.31;4915498;29;20095;-69
2022/11/19 11:30:34;;;;;;;15.88;10.30;;;;;;;5.35;47.66;100764.28;4914896;29;20289;-69
2022/11/19 11:33:24;;;;;;;16.25;10.63;;;;;;;5.38;47.11;100761.31;4914434;29;20044;-71
2022/11/19 11:35:56;;;;;;;16.38;10.18;;;;;;;5.37;47.43;100759.63;4917018;29;20480;-70
2022/11/19 11:38:26;;;;;;;16.33;10.18;;;;;;;5.39;47.75;100760.34;4911918;29;20036;-69
2022/11/19 11:41:00;;;;;;;15.93;10.73;;;;;;;5.40;47.10;100763.94;4912483;29;20080;-69
2022/11/19 11:44:03;;;;;;;17.48;11.55;;;;;;;5.39;46.84;100763.06;4916395;29;20409;-69
2022/11/19 11:46:44;;;;;;;18.38;10.98;;;;;;;5.35;46.67;100760.69;4913704;29;20055;-69
2022/11/19 11:49:23;;;;;;;17.40;11.50;;;;;;;5.35;46.71;100760.69;4912693;29;20043;-71
2022/11/19 11:52:05;;;;;;;16.55;10.88;;;;;;;5.34;46.67;100756.22;4914945;29;20051;-70
2022/11/19 11:54:33;;;;;;;15.98;10.02;;;;;;;5.29;47.20;100751.13;4911021;29;20130;-70
2022/11/19 11:57:18;;;;;;;16.73;11.00;;;;;;;5.28;46.45;100758.41;4913483;29;20055;-70
2022/11/19 11:59:48;;;;;;;16.50;10.23;;;;;;;5.25;46.95;100753.16;4912528;29;20079;-69
2022/11/19 12:02:22;;;;;;;17.33;10.75;;;;;;;5.25;46.97;100755.88;4912143;29;20288;-69
2022/11/19 12:04:51;;;;;;;15.85;10.38;;;;;;;5.22;47.23;100758.78;4915785;29;20044;-69